Flight Briefing for CPX17

Departure Arrival
Taiwan Taoyuan International Airport (RCTP)
Click to view FAA NOTAMS
Ted Stevens Anchorage International Airport (PANC)
Click to view FAA NOTAMS
Departure Time Arrival Time
N/A N/A
Aircraft Distance
B747-400BCF 4065nm
Departure METAR Arrival METAR
RCTP 252330Z 05017KT 9999 FEW009 SCT015 BKN025 19/16 Q1020 NOSIG RMK A3014 PANC 252253Z 34005KT 10SM FEW060 BKN200 07/01 A3022 RMK AO2 SLP235 T00720011
Suggested Route
MOLKA M750 MIDAI M750 BUNGU Y81 SYOYU Y809 KAGIS A590 PABBA A590 PASRO A590 HAMND NEELL6


View recent IFR Routes data
Notes



Charts and Procedures

Charts for RCTP
No chart available
Charts for PANC
No chart available

Windy.com Weather Map